Berne, NY (12023)

7:28 AM EST on February 10, 2016 (GMT -0500)
Berne Knox Westerlo High School | | Change Station
CLOSE
Current Station
Personal Weather Station
Location: Berne, NY
Elevation: 1024 ft
Nearby Weather Stations

Elev 1024 ft 42.63 °N, 74.14 °W | Updated 7 seconds ago

Overcast
Overcast
25.4 °F
Feels Like 25 °F
N
0.0
Wind Variable Wind from SW
Gusts 0.0 mph

Today
High -- | Low -- °F
--% Chance of Precip.
Yesterday
High -- | Low -- °F
Precip. -- in
Pressure 29.57 in
Visibility 1.5 miles
Clouds Mostly Cloudy 500 ft
Mostly Cloudy 2800 ft
Overcast 4800 ft
Windchill 25 °F
Dew Point 23 °F
Humidity 92%
Rainfall 0.06 in
Snow Depth Not available.
7:00 AM 5:21 PM
Waxing Crescent, 5% visible
SPECI KALB 101225Z 18004KT 1 1/2SM -SN BR BKN005 BKN028 OVC048 M02/M03 A2957 RMK AO2 P0000 T10171033 $
Pressure 29.57 in
Visibility 1.5 miles
Clouds Mostly Cloudy 500 ft
Mostly Cloudy 2800 ft
Overcast 4800 ft
Windchill 25 °F
Dew Point 23 °F
Humidity 92%
Rainfall 0.06 in
Snow Depth Not available.
7:00 AM 5:21 PM
Waxing Crescent, 5% visible
SPECI KALB 101225Z 18004KT 1 1/2SM -SN BR BKN005 BKN028 OVC048 M02/M03 A2957 RMK AO2 P0000 T10171033 $

10-Day Weather Forecast

Almanac

Astronomy

Feb. 10, 2016 Rise Set
Actual Time
Civil Twilight
Nautical Twilight
Astronomical Twilight
Moon
Length of Visible Light
Length of Day
Tomorrow will be .
, % of the Moon is Illuminated

Today's Extremes

State Highs State Lows

Community

WunderPhotos

Upload Photos

1,891,835 photos uploaded!

WunderBlog® & News

Nearby

Air Quality

  Air Quality AQ Index Pollutant
Not available.

Snow Depth

Station Depth Elevation

Earthquake Activity

City Distance Mag. Time & Date
Minimum magnitude displayed is 2.5.

Coastal Water Temperatures

Place Temperature

Stations

Nearby Weather Stations

Station Location Temp. Windchill Dew Point Humidity Wind Precip. Elev Updated Type
                   

Watches & Warnings

There are currently no watches in effect.